Time;durP1;ratioP1;P1;durP2;ratioP2;P2;SDS_P1;SDS_P2;PMS_P1;PMS_P2;Temp;Humidity;BMP_temperature;BMP_pressure;BME280_temperature;BME280_humidity;BME280_pressure;Samples;Min_cycle;Max_cycle;Signal;HPM_P1;HPM_P2
2023/05/10 00:02:02;;;;;;;11.88;9.50;;;12.80;99.90;;;;;;5051493;28;20552;-64
2023/05/10 00:04:29;;;;;;;12.00;9.02;;;12.80;99.90;;;;;;5052479;28;20500;-63
2023/05/10 00:06:56;;;;;;;10.85;8.38;;;12.70;99.90;;;;;;5071170;28;20102;-63
2023/05/10 00:09:23;;;;;;;11.07;8.77;;;12.80;99.90;;;;;;5052541;28;20056;-64
2023/05/10 00:11:49;;;;;;;12.43;8.55;;;12.80;99.90;;;;;;5053207;28;20125;-63
2023/05/10 00:14:18;;;;;;;11.32;8.05;;;12.70;99.90;;;;;;5074111;28;20053;-63
2023/05/10 00:16:45;;;;;;;9.85;7.72;;;12.70;99.90;;;;;;5056710;28;20117;-63
2023/05/10 00:19:12;;;;;;;11.02;8.00;;;12.70;99.90;;;;;;5073466;28;20044;-63
2023/05/10 00:21:38;;;;;;;10.45;7.43;;;12.70;99.90;;;;;;5056424;28;20558;-63
2023/05/10 00:24:06;;;;;;;10.23;7.20;;;12.60;99.90;;;;;;5053077;28;20098;-63
2023/05/10 00:26:33;;;;;;;11.88;8.35;;;12.70;99.90;;;;;;5037066;28;20511;-63
2023/05/10 00:29:00;;;;;;;10.23;7.57;;;12.60;99.90;;;;;;5037271;28;20045;-64
2023/05/10 00:31:28;;;;;;;9.90;7.43;;;12.60;99.90;;;;;;5054547;28;20439;-64
2023/05/10 00:33:55;;;;;;;10.88;7.65;;;12.60;99.90;;;;;;5037060;28;20103;-63
2023/05/10 00:36:22;;;;;;;9.32;7.05;;;12.60;99.90;;;;;;5055335;28;20048;-64
2023/05/10 00:38:49;;;;;;;11.38;6.88;;;12.60;99.90;;;;;;5054581;28;20095;-63
2023/05/10 00:41:16;;;;;;;8.05;6.28;;;12.50;99.90;;;;;;5037369;28;20048;-64
2023/05/10 00:43:43;;;;;;;8.63;6.60;;;12.60;99.90;;;;;;5054793;28;20511;-63
2023/05/10 00:46:10;;;;;;;8.23;6.43;;;12.60;99.90;;;;;;5036547;28;20485;-63
2023/05/10 00:48:38;;;;;;;8.65;6.57;;;12.60;99.90;;;;;;5036944;28;20493;-63
2023/05/10 00:51:06;;;;;;;9.18;6.57;;;12.60;99.90;;;;;;5037214;28;20094;-63
2023/05/10 00:53:33;;;;;;;9.77;6.63;;;12.50;99.90;;;;;;5054170;28;20056;-63
2023/05/10 00:56:00;;;;;;;8.75;6.47;;;12.50;99.90;;;;;;5054895;28;20132;-63
2023/05/10 00:58:28;;;;;;;9.13;6.10;;;12.50;99.90;;;;;;5036956;28;20060;-63
2023/05/10 01:00:56;;;;;;;9.60;7.00;;;12.60;99.90;;;;;;5054166;28;20053;-63
2023/05/10 01:03:23;;;;;;;8.13;6.47;;;12.50;99.90;;;;;;5036734;28;20055;-63
2023/05/10 01:05:52;;;;;;;9.38;7.25;;;12.50;99.90;;;;;;5071774;28;20056;-63
2023/05/10 01:08:19;;;;;;;9.73;7.22;;;12.50;99.90;;;;;;5073462;28;20440;-63
2023/05/10 01:10:48;;;;;;;9.35;7.80;;;12.50;99.90;;;;;;5056225;28;20410;-63
2023/05/10 01:13:28;;;;;;;9.93;7.70;;;12.50;99.90;;;;;;5071923;28;20048;-63
2023/05/10 01:15:56;;;;;;;9.63;7.82;;;12.40;99.90;;;;;;5073005;28;20454;-64
2023/05/10 01:18:23;;;;;;;10.98;8.32;;;12.40;99.90;;;;;;5055901;28;20045;-64
2023/05/10 01:21:00;;;;;;;10.70;7.95;;;12.40;99.90;;;;;;5073357;28;20406;-62
2023/05/10 01:23:43;;;;;;;9.40;7.03;;;12.40;99.90;;;;;;5072559;28;20048;-63
2023/05/10 01:27:06;;;;;;;9.25;7.47;;;12.40;99.90;;;;;;5072121;28;20045;-63
2023/05/10 01:29:59;;;;;;;9.65;8.13;;;12.40;99.90;;;;;;5054969;28;20505;-64
2023/05/10 01:32:32;;;;;;;12.85;8.15;;;12.40;99.90;;;;;;5055795;28;20056;-63
2023/05/10 01:35:04;;;;;;;11.43;8.35;;;12.30;99.90;;;;;;5072836;28;20045;-65
2023/05/10 01:37:40;;;;;;;9.93;7.55;;;12.40;99.90;;;;;;5073513;28;20059;-64
2023/05/10 01:40:18;;;;;;;12.25;8.80;;;12.40;99.90;;;;;;5073218;28;20048;-63
2023/05/10 01:42:50;;;;;;;10.88;7.65;;;12.40;99.90;;;;;;5054932;28;20541;-64
2023/05/10 01:45:25;;;;;;;10.38;7.72;;;12.30;99.90;;;;;;5073124;28;20056;-63
2023/05/10 01:48:02;;;;;;;10.32;7.35;;;12.30;99.90;;;;;;5055583;28;20518;-64
2023/05/10 01:50:31;;;;;;;8.55;6.85;;;12.40;99.90;;;;;;5072409;28;20553;-63
2023/05/10 01:53:01;;;;;;;9.93;7.78;;;12.40;99.90;;;;;;5072850;28;20049;-63
2023/05/10 01:55:31;;;;;;;9.25;6.68;;;12.40;99.90;;;;;;5073264;28;20048;-63
2023/05/10 01:58:03;;;;;;;9.20;7.15;;;12.30;99.90;;;;;;5072564;28;20055;-63
2023/05/10 02:00:32;;;;;;;9.07;6.70;;;12.30;99.90;;;;;;5072861;28;20056;-63
2023/05/10 02:03:04;;;;;;;8.43;6.18;;;12.30;99.90;;;;;;5054469;28;20087;-63
2023/05/10 02:05:34;;;;;;;7.95;6.55;;;12.40;99.90;;;;;;5070999;28;20447;-63
2023/05/10 02:08:03;;;;;;;8.90;6.75;;;12.30;99.90;;;;;;5054898;28;20049;-64
2023/05/10 02:10:31;;;;;;;10.30;6.68;;;12.30;99.90;;;;;;5054168;28;20546;-63
2023/05/10 02:13:00;;;;;;;7.60;6.03;;;12.20;99.90;;;;;;5052645;28;20201;-64
2023/05/10 02:15:28;;;;;;;7.30;5.93;;;12.20;99.90;;;;;;5072599;28;20040;-63
2023/05/10 02:17:57;;;;;;;8.57;6.70;;;12.20;99.90;;;;;;5054312;28;20051;-64
2023/05/10 02:20:26;;;;;;;8.65;7.15;;;12.20;99.90;;;;;;5054643;28;20543;-63
2023/05/10 02:22:56;;;;;;;9.18;7.15;;;12.20;99.90;;;;;;5054736;28;20060;-63
2023/05/10 02:25:24;;;;;;;9.23;7.73;;;12.20;99.90;;;;;;5071979;28;20128;-64
2023/05/10 02:27:54;;;;;;;9.30;7.07;;;12.20;99.90;;;;;;5072459;28;20048;-62
2023/05/10 02:30:23;;;;;;;9.97;8.03;;;12.10;99.90;;;;;;5072224;28;20060;-63
2023/05/10 02:32:50;;;;;;;8.45;7.38;;;12.20;99.90;;;;;;5072035;28;20651;-63
2023/05/10 02:35:17;;;;;;;10.07;8.98;;;12.20;99.90;;;;;;5071821;28;20044;-63
2023/05/10 02:37:47;;;;;;;13.80;9.40;;;12.20;99.90;;;;;;5072408;28;20052;-62
2023/05/10 02:40:16;;;;;;;13.95;10.25;;;12.20;99.90;;;;;;5054092;28;20093;-63
2023/05/10 02:42:45;;;;;;;13.13;8.70;;;12.20;99.90;;;;;;5054431;28;20053;-63
2023/05/10 02:45:14;;;;;;;12.98;9.43;;;12.20;99.90;;;;;;5053660;28;20149;-63
2023/05/10 02:47:42;;;;;;;12.80;9.10;;;12.20;99.90;;;;;;5072452;28;20458;-63
2023/05/10 02:50:09;;;;;;;13.80;9.75;;;12.20;99.90;;;;;;5072156;28;20048;-63
2023/05/10 02:52:41;;;;;;;16.50;10.23;;;12.20;99.90;;;;;;5069618;28;20048;-62
2023/05/10 02:55:12;;;;;;;14.27;10.18;;;12.20;99.90;;;;;;5071835;28;20140;-62
2023/05/10 02:57:43;;;;;;;15.45;10.23;;;12.20;99.90;;;;;;5072331;28;20171;-64
2023/05/10 03:00:11;;;;;;;17.15;11.23;;;12.20;99.90;;;;;;5071542;28;20102;-63
2023/05/10 03:02:38;;;;;;;16.63;11.07;;;12.20;99.90;;;;;;5052003;28;20056;-63
2023/05/10 03:05:06;;;;;;;14.57;10.90;;;12.20;99.90;;;;;;5071642;28;20102;-63
2023/05/10 03:07:34;;;;;;;14.75;11.35;;;12.20;99.90;;;;;;5053397;28;20044;-63
2023/05/10 03:10:01;;;;;;;16.50;12.18;;;12.20;99.90;;;;;;5071728;28;20052;-62
2023/05/10 03:12:39;;;;;;;16.60;12.30;;;12.20;99.90;;;;;;5053941;28;20048;-63
2023/05/10 03:15:14;;;;;;;17.27;11.88;;;12.20;99.90;;;;;;5069984;28;20048;-63
2023/05/10 03:17:48;;;;;;;16.05;11.57;;;12.20;99.90;;;;;;5052840;28;20048;-63
2023/05/10 03:20:24;;;;;;;16.92;11.80;;;12.20;99.90;;;;;;5053415;28;20114;-63
2023/05/10 03:22:56;;;;;;;15.20;10.73;;;12.20;99.90;;;;;;5070598;28;20066;-63
2023/05/10 03:25:24;;;;;;;16.50;12.45;;;12.20;99.90;;;;;;5051904;28;20503;-63
2023/05/10 03:27:53;;;;;;;16.05;11.65;;;12.30;99.90;;;;;;5071288;28;20048;-63
2023/05/10 03:30:20;;;;;;;16.85;12.20;;;12.20;99.90;;;;;;5053307;28;20053;-63
2023/05/10 03:32:47;;;;;;;16.17;11.75;;;12.20;99.90;;;;;;5053596;28;20048;-63
2023/05/10 03:35:14;;;;;;;15.45;11.73;;;12.30;99.90;;;;;;5052737;28;20059;-63
2023/05/10 03:37:41;;;;;;;16.52;11.82;;;12.20;99.90;;;;;;5046840;28;20064;-63
2023/05/10 03:40:10;;;;;;;15.90;11.50;;;12.30;99.90;;;;;;5045503;28;20052;-64
2023/05/10 03:42:37;;;;;;;15.95;11.60;;;12.50;99.90;;;;;;5049910;28;20067;-62
2023/05/10 03:45:06;;;;;;;21.83;14.95;;;12.50;99.90;;;;;;5051214;28;20052;-63
2023/05/10 03:47:33;;;;;;;19.60;13.65;;;12.50;99.90;;;;;;5068772;28;20504;-63
2023/05/10 03:50:00;;;;;;;20.23;12.70;;;12.50;99.90;;;;;;5069713;28;20427;-63
2023/05/10 03:52:27;;;;;;;17.23;12.23;;;12.60;99.90;;;;;;5071045;28;20052;-63
2023/05/10 03:54:54;;;;;;;26.00;14.18;;;12.60;99.90;;;;;;5056521;28;20052;-64
2023/05/10 03:57:21;;;;;;;25.23;16.15;;;12.60;99.90;;;;;;5072908;28;20048;-64
2023/05/10 03:59:48;;;;;;;21.35;13.55;;;12.60;99.90;;;;;;5073980;28;20044;-64
2023/05/10 04:02:16;;;;;;;19.73;14.45;;;12.60;99.90;;;;;;5055315;28;20117;-64
2023/05/10 04:04:43;;;;;;;15.30;10.88;;;12.60;99.90;;;;;;5073671;28;20500;-64
2023/05/10 04:07:10;;;;;;;24.20;14.80;;;12.60;99.90;;;;;;5071695;28;20044;-63
2023/05/10 04:09:37;;;;;;;18.58;12.98;;;12.60;99.90;;;;;;5053759;28;20492;-62
2023/05/10 04:12:04;;;;;;;15.68;11.13;;;12.70;99.90;;;;;;5053635;28;20044;-63
2023/05/10 04:14:31;;;;;;;16.33;10.85;;;12.60;99.90;;;;;;5053746;28;20102;-64
2023/05/10 04:16:58;;;;;;;14.82;9.95;;;12.60;99.90;;;;;;5072830;28;20556;-63
2023/05/10 04:19:30;;;;;;;11.35;7.80;;;12.70;99.90;;;;;;5072504;28;20553;-64
2023/05/10 04:21:57;;;;;;;10.05;6.95;;;12.60;99.90;;;;;;5073337;28;20049;-63
2023/05/10 04:24:23;;;;;;;9.60;6.80;;;12.60;99.90;;;;;;5072130;28;20045;-63
2023/05/10 04:26:50;;;;;;;7.47;5.85;;;12.60;99.90;;;;;;5071827;28;20048;-63
2023/05/10 04:29:17;;;;;;;8.75;5.30;;;12.50;99.90;;;;;;5071870;28;20060;-63
2023/05/10 04:31:44;;;;;;;8.40;5.07;;;12.50;99.90;;;;;;5073643;28;20052;-63
2023/05/10 04:34:11;;;;;;;9.80;5.15;;;12.50;99.90;;;;;;5053112;28;20056;-64
2023/05/10 04:36:39;;;;;;;5.72;4.38;;;12.50;99.90;;;;;;5070958;28;20106;-63
2023/05/10 04:39:06;;;;;;;5.10;4.43;;;12.50;99.90;;;;;;5052581;28;20052;-63
2023/05/10 04:41:33;;;;;;;5.18;3.92;;;12.40;99.90;;;;;;5053867;28;20052;-63
2023/05/10 04:44:00;;;;;;;5.40;4.10;;;12.40;99.90;;;;;;5072417;28;20098;-64
2023/05/10 04:46:27;;;;;;;6.35;4.32;;;12.30;99.90;;;;;;5053220;28;20076;-63
2023/05/10 04:48:54;;;;;;;4.97;4.18;;;12.30;99.90;;;;;;5071456;28;20044;-64
2023/05/10 04:51:21;;;;;;;5.72;4.38;;;12.20;99.90;;;;;;5073332;28;20049;-63
2023/05/10 04:53:49;;;;;;;7.55;5.10;;;12.20;99.90;;;;;;5071051;28;20075;-63
2023/05/10 04:56:16;;;;;;;7.93;5.25;;;12.20;99.90;;;;;;5071718;28;20132;-63
2023/05/10 04:58:43;;;;;;;7.03;5.03;;;12.10;99.90;;;;;;5051404;28;20135;-64
2023/05/10 05:01:10;;;;;;;7.53;5.55;;;12.10;99.90;;;;;;5050537;28;20389;-63
2023/05/10 05:03:38;;;;;;;7.22;5.35;;;12.10;99.90;;;;;;5055034;28;20122;-63
2023/05/10 05:06:05;;;;;;;8.85;5.72;;;12.10;99.90;;;;;;5050694;28;20061;-63
2023/05/10 05:08:32;;;;;;;7.30;5.90;;;12.10;99.90;;;;;;5073521;28;20040;-63
2023/05/10 05:11:00;;;;;;;11.50;6.80;;;12.20;99.90;;;;;;5072219;28;20438;-63
2023/05/10 05:13:27;;;;;;;8.02;5.55;;;12.20;99.90;;;;;;5072271;28;20515;-63
2023/05/10 05:15:54;;;;;;;10.05;7.05;;;12.10;99.90;;;;;;5072092;28;20052;-64
2023/05/10 05:18:21;;;;;;;8.35;6.20;;;12.20;99.90;;;;;;5073227;28;20051;-64
2023/05/10 05:20:48;;;;;;;11.10;7.00;;;12.20;99.90;;;;;;5053040;28;20052;-63
2023/05/10 05:23:15;;;;;;;7.07;5.25;;;12.20;99.90;;;;;;5073027;28;20094;-63
2023/05/10 05:25:41;;;;;;;8.82;6.40;;;12.20;99.90;;;;;;5071725;28;20057;-63
2023/05/10 05:28:10;;;;;;;11.00;6.30;;;12.20;99.90;;;;;;5070314;28;20098;-63
2023/05/10 05:30:37;;;;;;;9.02;6.30;;;12.20;99.90;;;;;;5071936;28;20052;-63
2023/05/10 05:33:04;;;;;;;7.72;6.07;;;12.20;99.90;;;;;;5055226;28;20052;-64
2023/05/10 05:35:30;;;;;;;9.68;5.78;;;12.20;99.90;;;;;;5071327;28;20048;-64
2023/05/10 05:37:57;;;;;;;7.85;5.63;;;12.20;99.90;;;;;;5070848;28;20052;-64
2023/05/10 05:40:24;;;;;;;11.07;6.47;;;12.20;99.90;;;;;;5053313;28;20045;-64
2023/05/10 05:42:51;;;;;;;9.02;6.07;;;12.20;99.90;;;;;;5053049;28;20044;-64
2023/05/10 05:45:19;;;;;;;9.88;6.20;;;12.20;99.90;;;;;;5055600;28;20049;-64
2023/05/10 05:47:47;;;;;;;10.52;5.80;;;12.20;99.90;;;;;;5071528;28;20060;-64
2023/05/10 05:50:14;;;;;;;10.43;6.90;;;12.20;99.90;;;;;;5054817;28;20048;-63
2023/05/10 05:52:40;;;;;;;11.40;6.65;;;12.20;99.90;;;;;;5055438;28;20052;-62
2023/05/10 05:55:08;;;;;;;9.57;6.28;;;12.20;99.90;;;;;;5072545;28;20404;-64
2023/05/10 05:57:35;;;;;;;10.35;6.80;;;12.30;99.90;;;;;;5073037;28;20550;-64
2023/05/10 06:00:02;;;;;;;9.38;6.60;;;12.30;99.90;;;;;;5055374;28;20118;-64
2023/05/10 06:02:30;;;;;;;9.57;6.25;;;12.30;99.90;;;;;;5072228;28;20110;-63
2023/05/10 06:04:57;;;;;;;7.57;5.40;;;12.30;99.90;;;;;;5072345;28;20059;-64
2023/05/10 06:07:25;;;;;;;8.73;5.25;;;12.30;99.90;;;;;;5054866;28;20052;-63
2023/05/10 06:09:52;;;;;;;5.60;3.95;;;12.40;99.90;;;;;;5051425;28;20052;-63
2023/05/10 06:12:18;;;;;;;3.88;2.70;;;12.40;99.90;;;;;;5054613;28;20048;-63
2023/05/10 06:14:45;;;;;;;4.40;2.80;;;12.40;99.90;;;;;;5072654;28;20048;-63
2023/05/10 06:17:12;;;;;;;3.38;2.35;;;12.30;99.90;;;;;;5054015;28;20087;-63
2023/05/10 06:19:40;;;;;;;4.45;2.47;;;12.40;99.90;;;;;;5054795;28;20120;-63
2023/05/10 06:22:07;;;;;;;4.68;2.53;;;12.40;99.90;;;;;;5054681;28;20064;-63
2023/05/10 06:24:34;;;;;;;4.93;3.10;;;12.40;99.90;;;;;;5054204;28;20055;-63
2023/05/10 06:27:01;;;;;;;6.70;4.32;;;12.30;99.90;;;;;;5072453;28;20493;-64
2023/05/10 06:29:28;;;;;;;8.18;5.47;;;12.30;99.90;;;;;;5072471;28;20052;-64
2023/05/10 06:31:55;;;;;;;10.88;6.90;;;12.40;99.90;;;;;;5071551;28;20442;-63
2023/05/10 06:34:22;;;;;;;9.25;7.05;;;12.20;99.90;;;;;;5072292;28;20564;-63
2023/05/10 06:36:51;;;;;;;11.40;8.25;;;12.40;99.90;;;;;;5070404;28;20056;-64
2023/05/10 06:39:18;;;;;;;17.13;10.23;;;12.30;99.90;;;;;;5071828;28;20128;-64
2023/05/10 06:41:45;;;;;;;14.95;9.80;;;12.20;99.90;;;;;;5072356;28;20385;-63
2023/05/10 06:44:12;;;;;;;14.07;10.02;;;12.20;99.90;;;;;;5053890;28;20123;-64
2023/05/10 06:46:39;;;;;;;15.00;9.35;;;12.20;99.90;;;;;;5054200;28;20127;-63
2023/05/10 06:49:06;;;;;;;14.15;9.93;;;12.20;99.90;;;;;;5072128;28;20124;-63
2023/05/10 06:51:33;;;;;;;11.52;8.35;;;12.30;99.90;;;;;;5053671;28;20087;-63
2023/05/10 06:54:01;;;;;;;9.35;6.50;;;12.20;99.90;;;;;;5054054;28;20098;-63
2023/05/10 06:56:28;;;;;;;11.93;6.75;;;12.20;99.90;;;;;;5072209;28;20111;-63
2023/05/10 06:58:55;;;;;;;9.90;6.10;;;12.20;99.90;;;;;;5071525;28;20044;-64
2023/05/10 07:01:22;;;;;;;8.27;6.20;;;12.20;99.90;;;;;;5072044;28;20055;-63
2023/05/10 07:03:49;;;;;;;9.07;6.00;;;12.20;99.90;;;;;;5071896;28;20451;-63
2023/05/10 07:06:16;;;;;;;12.05;6.18;;;12.20;99.90;;;;;;5071462;28;20076;-63
2023/05/10 07:08:43;;;;;;;8.30;5.85;;;12.30;99.90;;;;;;5072122;28;20106;-63
2023/05/10 07:11:11;;;;;;;5.95;4.45;;;12.30;99.90;;;;;;5071950;28;20044;-64
2023/05/10 07:13:41;;;;;;;6.75;4.22;;;12.30;99.90;;;;;;5052993;28;20071;-64
2023/05/10 07:16:08;;;;;;;5.10;4.18;;;12.40;99.90;;;;;;5072125;28;20048;-63
2023/05/10 07:18:35;;;;;;;7.05;4.57;;;12.50;99.90;;;;;;5071848;28;20111;-63
2023/05/10 07:21:01;;;;;;;9.50;5.22;;;12.50;99.90;;;;;;5054875;28;20048;-63
2023/05/10 07:23:29;;;;;;;7.20;4.65;;;12.60;99.90;;;;;;5057907;28;20052;-64
2023/05/10 07:25:57;;;;;;;8.30;5.47;;;12.50;99.90;;;;;;5058309;28;20485;-63
2023/05/10 07:28:25;;;;;;;22.05;8.68;;;12.50;99.90;;;;;;5073545;28;20044;-63
2023/05/10 07:30:52;;;;;;;13.32;6.65;;;12.60;99.90;;;;;;5057998;28;20052;-63
2023/05/10 07:33:19;;;;;;;9.13;5.40;;;12.70;99.90;;;;;;5057796;28;20056;-64
2023/05/10 07:35:46;;;;;;;4.43;3.30;;;12.80;99.90;;;;;;5075840;28;20048;-63
2023/05/10 07:38:13;;;;;;;4.18;2.58;;;12.90;99.90;;;;;;5075718;28;20525;-63
2023/05/10 07:40:40;;;;;;;3.33;2.50;;;12.90;99.90;;;;;;5075050;28;20519;-64
2023/05/10 07:43:07;;;;;;;7.10;2.60;;;13.00;99.90;;;;;;5057547;28;20048;-63
2023/05/10 07:45:35;;;;;;;3.22;2.13;;;13.10;99.90;;;;;;5057793;28;20068;-63
2023/05/10 07:48:02;;;;;;;4.05;2.10;;;13.10;99.90;;;;;;5074944;28;20110;-63
2023/05/10 07:50:29;;;;;;;3.67;2.40;;;13.20;99.90;;;;;;5075605;28;20384;-64
2023/05/10 07:52:56;;;;;;;3.85;3.00;;;13.20;99.90;;;;;;5057673;28;20044;-63
2023/05/10 07:55:23;;;;;;;4.22;3.03;;;13.20;99.90;;;;;;5057030;28;20097;-64
2023/05/10 07:57:50;;;;;;;4.28;3.00;;;13.20;99.90;;;;;;5075317;28;20633;-63
2023/05/10 08:00:19;;;;;;;5.30;2.88;;;13.20;99.90;;;;;;5057725;28;20044;-64
2023/05/10 08:02:48;;;;;;;4.38;3.00;;;13.20;99.90;;;;;;5072802;28;20044;-64
2023/05/10 08:05:15;;;;;;;4.72;2.92;;;13.20;99.90;;;;;;5074864;28;20064;-64
2023/05/10 08:07:42;;;;;;;3.83;2.97;;;13.20;99.90;;;;;;5057320;28;20098;-64
2023/05/10 08:10:11;;;;;;;4.78;3.05;;;13.20;99.90;;;;;;5074679;28;20087;-63
2023/05/10 08:12:38;;;;;;;4.78;3.47;;;13.20;99.90;;;;;;5075171;28;20128;-63
2023/05/10 08:15:06;;;;;;;6.30;4.03;;;13.10;99.90;;;;;;5073004;28;20044;-63
2023/05/10 08:17:33;;;;;;;4.35;3.60;;;13.10;99.90;;;;;;5074360;28;20045;-63
2023/05/10 08:20:01;;;;;;;5.28;3.47;;;13.10;99.90;;;;;;5074958;28;20049;-64
2023/05/10 08:22:28;;;;;;;6.68;3.83;;;13.10;99.90;;;;;;5074721;28;20519;-64
2023/05/10 08:24:55;;;;;;;4.72;2.90;;;13.10;99.90;;;;;;5056363;28;20480;-63
2023/05/10 08:27:22;;;;;;;4.28;3.17;;;13.10;99.90;;;;;;5074658;28;20496;-63
2023/05/10 08:29:49;;;;;;;5.30;3.65;;;13.20;99.90;;;;;;5056394;28;20451;-63
2023/05/10 08:32:15;;;;;;;3.88;2.90;;;13.30;99.90;;;;;;5072020;28;20044;-63
2023/05/10 08:34:42;;;;;;;3.53;2.53;;;13.30;99.90;;;;;;5056685;28;20049;-63
2023/05/10 08:37:12;;;;;;;4.05;2.80;;;13.40;99.90;;;;;;5056422;28;20545;-64
2023/05/10 08:39:39;;;;;;;5.13;3.17;;;13.50;99.90;;;;;;5074952;28;20399;-63
2023/05/10 08:42:08;;;;;;;4.47;3.40;;;13.50;99.90;;;;;;5074793;28;20492;-63
2023/05/10 08:44:36;;;;;;;5.07;4.00;;;13.60;99.90;;;;;;5073814;28;20051;-63
2023/05/10 08:47:06;;;;;;;6.15;4.10;;;13.50;99.90;;;;;;5074713;28;20045;-64
2023/05/10 08:49:34;;;;;;;5.53;4.00;;;13.50;99.90;;;;;;5055166;28;20567;-64
2023/05/10 08:52:04;;;;;;;6.07;4.10;;;13.50;99.90;;;;;;5073797;28;20049;-64
2023/05/10 08:54:33;;;;;;;4.77;3.73;;;13.50;99.90;;;;;;5074170;28;20128;-63
2023/05/10 08:57:00;;;;;;;7.00;4.05;;;13.50;99.90;;;;;;5074558;28;20314;-63
2023/05/10 08:59:27;;;;;;;6.82;4.07;;;13.50;99.90;;;;;;5055868;28;20056;-63
2023/05/10 09:01:56;;;;;;;6.90;4.00;;;13.60;99.90;;;;;;5056539;28;20136;-63
2023/05/10 09:04:24;;;;;;;5.40;3.70;;;13.60;99.90;;;;;;5055655;28;20052;-63
2023/05/10 09:06:51;;;;;;;5.22;3.88;;;13.60;99.90;;;;;;5073791;28;20049;-63
2023/05/10 09:09:18;;;;;;;5.50;3.10;;;13.60;99.90;;;;;;5056363;28;20118;-63
2023/05/10 09:11:47;;;;;;;6.07;3.72;;;13.70;99.90;;;;;;5074098;28;20581;-63
2023/05/10 09:14:15;;;;;;;5.10;3.63;;;13.80;99.90;;;;;;5055743;28;20052;-63
2023/05/10 09:16:42;;;;;;;5.57;4.00;;;13.80;99.90;;;;;;5053876;28;20056;-63
2023/05/10 09:19:10;;;;;;;6.43;3.75;;;13.90;99.90;;;;;;5055495;28;20056;-63
2023/05/10 09:21:38;;;;;;;6.22;3.90;;;14.00;99.90;;;;;;5074092;28;20044;-63
2023/05/10 09:24:05;;;;;;;5.70;3.35;;;14.00;99.90;;;;;;5073606;28;20043;-63
2023/05/10 09:26:33;;;;;;;4.20;2.88;;;14.10;99.90;;;;;;5055414;28;20083;-63
2023/05/10 09:29:02;;;;;;;4.72;3.45;;;14.10;99.90;;;;;;5073573;28;20084;-63
2023/05/10 09:31:46;;;;;;;4.95;3.70;;;14.10;99.90;;;;;;5073753;28;20040;-63
2023/05/10 09:34:17;;;;;;;6.18;4.47;;;14.20;99.90;;;;;;5053235;28;20084;-63
2023/05/10 09:36:56;;;;;;;5.63;4.15;;;14.30;99.90;;;;;;5055628;28;20489;-63
2023/05/10 09:39:31;;;;;;;6.15;4.38;;;14.50;99.90;;;;;;5071474;28;20048;-64
2023/05/10 09:41:59;;;;;;;6.63;4.38;;;14.60;99.90;;;;;;5053305;28;20489;-63
2023/05/10 09:44:28;;;;;;;5.28;3.63;;;14.60;99.90;;;;;;5072176;28;20051;-63
2023/05/10 09:46:55;;;;;;;4.50;3.53;;;14.60;99.90;;;;;;5055685;28;20052;-63
2023/05/10 09:49:22;;;;;;;5.60;4.15;;;14.70;99.90;;;;;;5054832;28;20056;-63
2023/05/10 09:52:03;;;;;;;5.38;4.07;;;14.70;99.90;;;;;;5073120;28;20045;-64
2023/05/10 09:54:30;;;;;;;5.88;3.63;;;14.80;99.90;;;;;;5072676;28;20135;-64
2023/05/10 09:56:57;;;;;;;6.50;4.32;;;14.80;99.90;;;;;;5073175;28;20044;-64
2023/05/10 09:59:28;;;;;;;6.85;4.68;;;14.90;99.90;;;;;;5073102;28;20462;-63
2023/05/10 10:01:57;;;;;;;6.85;3.97;;;15.10;99.90;;;;;;5072556;28;20386;-63
2023/05/10 10:04:24;;;;;;;8.10;4.50;;;15.40;99.90;;;;;;5051536;28;20061;-64
2023/05/10 10:07:01;;;;;;;6.18;3.83;;;15.70;99.90;;;;;;5051848;28;20049;-62
2023/05/10 10:09:28;;;;;;;4.40;3.58;;;15.80;99.90;;;;;;5052338;28;20493;-63
2023/05/10 10:11:56;;;;;;;5.75;3.90;;;15.90;99.90;;;;;;5053024;28;20044;-63
2023/05/10 10:14:23;;;;;;;4.88;3.70;;;16.10;99.90;;;;;;5050582;28;20053;-63
2023/05/10 10:16:52;;;;;;;6.22;4.15;;;16.30;99.90;;;;;;5052178;28;20106;-63
2023/05/10 10:19:20;;;;;;;5.78;3.88;;;16.20;99.90;;;;;;5051732;28;20507;-64
2023/05/10 10:21:47;;;;;;;10.02;4.47;;;16.00;99.90;;;;;;5051525;28;20052;-64
2023/05/10 10:24:14;;;;;;;5.20;4.13;;;16.00;99.90;;;;;;5052051;28;20102;-63
2023/05/10 10:26:42;;;;;;;6.75;4.50;;;16.00;99.90;;;;;;5051681;28;20052;-63
2023/05/10 10:29:19;;;;;;;5.30;4.55;;;16.10;99.90;;;;;;5051456;28;20056;-64
2023/05/10 10:31:50;;;;;;;7.25;4.22;;;16.00;99.90;;;;;;5051784;28;20107;-63
2023/05/10 10:34:27;;;;;;;6.00;3.90;;;16.10;99.90;;;;;;5051557;28;20053;-63
2023/05/10 10:36:56;;;;;;;4.97;3.38;;;16.10;99.90;;;;;;5051029;28;20445;-63
2023/05/10 10:39:24;;;;;;;5.70;3.80;;;16.20;99.90;;;;;;5052394;28;20048;-64
2023/05/10 10:41:52;;;;;;;5.47;4.20;;;16.20;99.90;;;;;;5051345;28;20079;-64
2023/05/10 10:44:33;;;;;;;5.97;4.60;;;16.10;99.90;;;;;;5051825;28;20098;-64
2023/05/10 10:47:02;;;;;;;6.65;5.05;;;16.00;99.90;;;;;;5051199;28;20156;-64
2023/05/10 10:49:32;;;;;;;5.88;4.47;;;16.10;99.90;;;;;;5051161;28;20044;-63
2023/05/10 10:52:22;;;;;;;6.25;4.85;;;16.20;99.90;;;;;;5050576;28;20043;-64
2023/05/10 10:54:53;;;;;;;5.53;4.80;;;16.10;99.90;;;;;;5052186;28;20049;-63
2023/05/10 10:57:21;;;;;;;;;;;16.10;99.90;;;;;;5051968;28;20051;-63
2023/05/10 10:59:48;;;;;;;6.18;4.68;;;16.00;99.90;;;;;;5052207;28;20300;-63
2023/05/10 11:02:45;;;;;;;5.93;4.80;;;15.60;99.90;;;;;;5052017;28;20045;-63
2023/05/10 11:05:34;;;;;;;6.05;4.55;;;16.30;99.90;;;;;;5058866;28;20052;-64
2023/05/10 11:08:15;;;;;;;6.70;4.80;;;16.60;99.90;;;;;;5070223;28;20492;-64
2023/05/10 11:11:06;;;;;;;7.28;5.20;;;16.90;99.90;;;;;;5072158;28;20135;-64
2023/05/10 11:13:35;;;;;;;6.75;4.50;;;17.00;99.90;;;;;;5049677;28;20055;-64
2023/05/10 11:16:13;;;;;;;7.85;5.20;;;17.00;99.90;;;;;;5054022;28;20414;-64
2023/05/10 11:18:40;;;;;;;7.80;5.68;;;16.80;99.90;;;;;;5051341;28;20102;-63
2023/05/10 11:21:10;;;;;;;10.13;6.82;;;16.90;99.90;;;;;;5054005;28;20064;-63
2023/05/10 11:23:50;;;;;;;9.07;6.53;;;16.80;99.90;;;;;;5071934;28;20048;-64
2023/05/10 11:26:17;;;;;;;8.00;5.63;;;16.80;99.90;;;;;;5071145;28;20044;-64
2023/05/10 11:28:45;;;;;;;15.32;6.28;;;16.80;99.90;;;;;;5054075;28;20056;-64
2023/05/10 11:31:14;;;;;;;7.65;6.53;;;16.70;99.90;;;;;;5051619;28;20056;-64
2023/05/10 11:33:44;;;;;;;8.68;6.47;;;16.50;99.90;;;;;;5053295;28;20496;-64
2023/05/10 11:36:15;;;;;;;9.20;7.25;;;16.10;99.90;;;;;;5053994;28;20048;-64
2023/05/10 11:38:41;;;;;;;;;;;16.10;99.90;;;;;;5072462;28;20500;-64
2023/05/10 11:41:11;;;;;;;10.10;6.38;;;15.90;99.90;;;;;;5052878;28;19928;-64
2023/05/10 11:43:39;;;;;;;8.35;6.45;;;15.80;99.90;;;;;;5071576;28;20493;-64
2023/05/10 11:46:06;;;;;;;8.88;6.65;;;15.60;99.90;;;;;;5071706;28;20044;-65
2023/05/10 11:48:33;;;;;;;10.60;6.75;;;15.70;99.90;;;;;;5053022;28;20135;-63
2023/05/10 11:51:01;;;;;;;7.63;5.53;;;15.70;99.90;;;;;;5071820;28;20048;-63
2023/05/10 11:53:31;;;;;;;10.15;6.07;;;15.80;99.90;;;;;;5071770;28;20617;-64
2023/05/10 11:56:04;;;;;;;10.00;5.75;;;15.90;99.90;;;;;;5053423;28;20538;-64
2023/05/10 11:58:31;;;;;;;10.85;7.00;;;15.90;99.90;;;;;;5070085;28;20082;-64
2023/05/10 12:00:59;;;;;;;7.95;6.53;;;15.80;99.90;;;;;;5070765;28;20102;-64
2023/05/10 12:03:26;;;;;;;10.38;7.00;;;15.80;99.90;;;;;;5053528;28;20045;-64
2023/05/10 12:05:53;;;;;;;10.52;6.97;;;15.70;99.90;;;;;;5071153;28;20060;-63
2023/05/10 12:08:22;;;;;;;10.80;7.15;;;15.50;99.90;;;;;;5072494;28;20044;-64
2023/05/10 12:10:51;;;;;;;13.27;8.23;;;15.30;99.90;;;;;;5075114;28;20098;-64
2023/05/10 12:13:18;;;;;;;16.30;8.07;;;15.30;99.90;;;;;;5074988;28;20045;-64
2023/05/10 12:15:45;;;;;;;11.10;7.60;;;15.20;99.90;;;;;;5056253;28;20063;-64
2023/05/10 12:18:13;;;;;;;13.98;8.18;;;15.20;99.90;;;;;;5055157;28;20060;-63
2023/05/10 12:20:40;;;;;;;11.60;8.00;;;15.20;99.90;;;;;;5075042;28;20057;-64
2023/05/10 12:23:10;;;;;;;13.32;8.48;;;15.20;99.90;;;;;;5056736;28;20040;-64
2023/05/10 12:25:39;;;;;;;10.70;7.60;;;15.30;99.90;;;;;;5074711;28;20451;-63
2023/05/10 12:28:10;;;;;;;10.93;8.05;;;15.20;99.90;;;;;;5074845;28;20040;-64
2023/05/10 12:30:38;;;;;;;14.43;8.30;;;15.40;99.90;;;;;;5056575;28;20460;-63
2023/05/10 12:33:10;;;;;;;11.55;7.70;;;15.50;99.90;;;;;;5072727;28;20377;-63
2023/05/10 12:35:45;;;;;;;10.35;7.18;;;15.70;99.90;;;;;;5056784;28;20044;-64
2023/05/10 12:38:29;;;;;;;10.13;7.38;;;15.90;99.90;;;;;;5074863;28;20065;-64
2023/05/10 12:40:56;;;;;;;12.55;7.50;;;15.90;99.90;;;;;;5056978;28;20080;-63
2023/05/10 12:43:24;;;;;;;9.60;6.70;;;16.20;99.90;;;;;;5074207;28;20045;-64
2023/05/10 12:45:51;;;;;;;10.85;6.75;;;16.20;99.90;;;;;;5074479;28;20498;-64
2023/05/10 12:48:18;;;;;;;8.88;6.18;;;16.20;99.90;;;;;;5072660;28;20424;-64
2023/05/10 12:50:45;;;;;;;9.65;6.75;;;16.30;99.90;;;;;;5056118;28;20060;-64
2023/05/10 12:53:13;;;;;;;8.95;6.72;;;16.60;99.90;;;;;;5054304;28;20455;-64